sensor_id;sensor_type;location;lat;lon;timestamp;temperature;humidity
26503;DHT22;14177;51.520;6.764;2024-03-02T00:00:28;8.40;99.90
26503;DHT22;14177;51.520;6.764;2024-03-02T00:02:56;8.40;99.90
26503;DHT22;14177;51.520;6.764;2024-03-02T00:05:23;8.40;99.90
26503;DHT22;14177;51.520;6.764;2024-03-02T00:07:57;8.50;99.90
26503;DHT22;14177;51.520;6.764;2024-03-02T00:10:26;8.50;99.90
26503;DHT22;14177;51.520;6.764;2024-03-02T00:12:58;8.50;99.90
26503;DHT22;14177;51.520;6.764;2024-03-02T00:18:01;8.50;99.90
26503;DHT22;14177;51.520;6.764;2024-03-02T00:20:29;8.50;99.90
26503;DHT22;14177;51.520;6.764;2024-03-02T00:23:07;8.60;99.90
26503;DHT22;14177;51.520;6.764;2024-03-02T00:25:54;8.60;99.90
26503;DHT22;14177;51.520;6.764;2024-03-02T00:28:30;8.60;99.90
26503;DHT22;14177;51.520;6.764;2024-03-02T00:31:05;8.70;99.90
26503;DHT22;14177;51.520;6.764;2024-03-02T00:36:12;8.70;99.90
26503;DHT22;14177;51.520;6.764;2024-03-02T00:38:46;8.70;99.90
26503;DHT22;14177;51.520;6.764;2024-03-02T00:41:20;8.80;99.90
26503;DHT22;14177;51.520;6.764;2024-03-02T00:43:59;8.80;99.90
26503;DHT22;14177;51.520;6.764;2024-03-02T00:46:30;8.80;99.90
26503;DHT22;14177;51.520;6.764;2024-03-02T00:51:37;8.90;99.90
26503;DHT22;14177;51.520;6.764;2024-03-02T00:54:08;9.00;99.90
26503;DHT22;14177;51.520;6.764;2024-03-02T00:56:36;9.00;99.90
26503;DHT22;14177;51.520;6.764;2024-03-02T00:59:03;9.00;99.90
26503;DHT22;14177;51.520;6.764;2024-03-02T01:01:30;9.00;99.90
26503;DHT22;14177;51.520;6.764;2024-03-02T01:03:57;9.00;99.90
26503;DHT22;14177;51.520;6.764;2024-03-02T01:06:24;9.10;99.90
26503;DHT22;14177;51.520;6.764;2024-03-02T01:08:51;9.10;99.90
26503;DHT22;14177;51.520;6.764;2024-03-02T01:11:20;9.20;99.90
26503;DHT22;14177;51.520;6.764;2024-03-02T01:13:51;9.20;99.90
26503;DHT22;14177;51.520;6.764;2024-03-02T01:16:19;9.20;99.90
26503;DHT22;14177;51.520;6.764;2024-03-02T01:18:46;9.20;99.90
26503;DHT22;14177;51.520;6.764;2024-03-02T01:21:14;9.30;99.90
26503;DHT22;14177;51.520;6.764;2024-03-02T01:23:41;9.30;99.90
26503;DHT22;14177;51.520;6.764;2024-03-02T01:26:08;9.30;99.90
26503;DHT22;14177;51.520;6.764;2024-03-02T01:28:35;9.30;99.90
26503;DHT22;14177;51.520;6.764;2024-03-02T01:31:03;9.40;99.90
26503;DHT22;14177;51.520;6.764;2024-03-02T01:33:30;9.40;99.90
26503;DHT22;14177;51.520;6.764;2024-03-02T01:35:57;9.40;99.90
26503;DHT22;14177;51.520;6.764;2024-03-02T01:38:24;9.40;99.90
26503;DHT22;14177;51.520;6.764;2024-03-02T01:40:51;9.30;99.90
26503;DHT22;14177;51.520;6.764;2024-03-02T01:43:18;9.30;99.90
26503;DHT22;14177;51.520;6.764;2024-03-02T01:45:46;9.30;99.90
26503;DHT22;14177;51.520;6.764;2024-03-02T01:48:14;9.30;99.90
26503;DHT22;14177;51.520;6.764;2024-03-02T01:50:41;9.20;99.90
26503;DHT22;14177;51.520;6.764;2024-03-02T01:53:08;9.20;99.90
26503;DHT22;14177;51.520;6.764;2024-03-02T01:55:36;9.20;99.90
26503;DHT22;14177;51.520;6.764;2024-03-02T01:58:03;9.20;99.90
26503;DHT22;14177;51.520;6.764;2024-03-02T02:00:30;9.20;99.90
26503;DHT22;14177;51.520;6.764;2024-03-02T02:02:59;9.20;99.90
26503;DHT22;14177;51.520;6.764;2024-03-02T02:05:26;9.20;99.90
26503;DHT22;14177;51.520;6.764;2024-03-02T02:07:53;9.20;99.90
26503;DHT22;14177;51.520;6.764;2024-03-02T02:10:20;9.20;99.90
26503;DHT22;14177;51.520;6.764;2024-03-02T02:12:47;9.30;99.90
26503;DHT22;14177;51.520;6.764;2024-03-02T02:17:51;9.20;99.90
26503;DHT22;14177;51.520;6.764;2024-03-02T02:20:18;9.20;99.90
26503;DHT22;14177;51.520;6.764;2024-03-02T02:23:03;9.20;99.90
26503;DHT22;14177;51.520;6.764;2024-03-02T02:25:32;9.20;99.90
26503;DHT22;14177;51.520;6.764;2024-03-02T02:27:59;9.30;99.90
26503;DHT22;14177;51.520;6.764;2024-03-02T02:30:28;9.30;99.90
26503;DHT22;14177;51.520;6.764;2024-03-02T02:32:57;9.30;99.90
26503;DHT22;14177;51.520;6.764;2024-03-02T02:35:25;9.40;99.90
26503;DHT22;14177;51.520;6.764;2024-03-02T02:37:54;9.40;99.90
26503;DHT22;14177;51.520;6.764;2024-03-02T02:40:22;9.40;99.90
26503;DHT22;14177;51.520;6.764;2024-03-02T02:42:50;9.40;99.90
26503;DHT22;14177;51.520;6.764;2024-03-02T02:45:19;9.40;99.90
26503;DHT22;14177;51.520;6.764;2024-03-02T02:47:46;9.40;99.90
26503;DHT22;14177;51.520;6.764;2024-03-02T02:50:13;9.40;99.90
26503;DHT22;14177;51.520;6.764;2024-03-02T02:52:41;9.40;97.40
26503;DHT22;14177;51.520;6.764;2024-03-02T02:55:11;9.40;97.40
26503;DHT22;14177;51.520;6.764;2024-03-02T02:57:40;9.40;97.40
26503;DHT22;14177;51.520;6.764;2024-03-02T03:00:13;9.40;97.50
26503;DHT22;14177;51.520;6.764;2024-03-02T03:02:46;9.40;97.40
26503;DHT22;14177;51.520;6.764;2024-03-02T03:05:16;9.40;97.50
26503;DHT22;14177;51.520;6.764;2024-03-02T03:07:43;9.40;97.40
26503;DHT22;14177;51.520;6.764;2024-03-02T03:10:11;9.40;97.50
26503;DHT22;14177;51.520;6.764;2024-03-02T03:12:40;9.40;97.40
26503;DHT22;14177;51.520;6.764;2024-03-02T03:15:10;9.40;97.50
26503;DHT22;14177;51.520;6.764;2024-03-02T03:17:38;9.40;97.50
26503;DHT22;14177;51.520;6.764;2024-03-02T03:20:05;9.40;97.50
26503;DHT22;14177;51.520;6.764;2024-03-02T03:22:37;9.40;97.50
26503;DHT22;14177;51.520;6.764;2024-03-02T03:25:05;9.40;97.50
26503;DHT22;14177;51.520;6.764;2024-03-02T03:27:34;9.40;97.60
26503;DHT22;14177;51.520;6.764;2024-03-02T03:30:01;9.40;97.60
26503;DHT22;14177;51.520;6.764;2024-03-02T03:32:28;9.40;97.50
26503;DHT22;14177;51.520;6.764;2024-03-02T03:34:55;9.30;97.60
26503;DHT22;14177;51.520;6.764;2024-03-02T03:37:22;9.30;97.70
26503;DHT22;14177;51.520;6.764;2024-03-02T03:39:49;9.30;97.80
26503;DHT22;14177;51.520;6.764;2024-03-02T03:42:16;9.30;97.80
26503;DHT22;14177;51.520;6.764;2024-03-02T03:44:43;9.30;98.00
26503;DHT22;14177;51.520;6.764;2024-03-02T03:47:10;9.30;98.20
26503;DHT22;14177;51.520;6.764;2024-03-02T03:49:37;9.30;98.20
26503;DHT22;14177;51.520;6.764;2024-03-02T03:52:04;9.30;98.30
26503;DHT22;14177;51.520;6.764;2024-03-02T03:54:31;9.30;98.60
26503;DHT22;14177;51.520;6.764;2024-03-02T03:56:58;9.20;98.70
26503;DHT22;14177;51.520;6.764;2024-03-02T03:59:25;9.20;99.10
26503;DHT22;14177;51.520;6.764;2024-03-02T04:01:52;9.20;99.00
26503;DHT22;14177;51.520;6.764;2024-03-02T04:04:20;9.20;99.90
26503;DHT22;14177;51.520;6.764;2024-03-02T04:06:47;9.20;99.90
26503;DHT22;14177;51.520;6.764;2024-03-02T04:09:14;9.10;99.90
26503;DHT22;14177;51.520;6.764;2024-03-02T04:11:41;9.10;99.90
26503;DHT22;14177;51.520;6.764;2024-03-02T04:14:08;9.00;99.90
26503;DHT22;14177;51.520;6.764;2024-03-02T04:16:35;9.00;99.90
26503;DHT22;14177;51.520;6.764;2024-03-02T04:19:02;8.90;99.90
26503;DHT22;14177;51.520;6.764;2024-03-02T04:21:31;8.80;99.90
26503;DHT22;14177;51.520;6.764;2024-03-02T04:23:58;8.80;99.90
26503;DHT22;14177;51.520;6.764;2024-03-02T04:26:26;8.70;99.90
26503;DHT22;14177;51.520;6.764;2024-03-02T04:28:53;8.70;99.90
26503;DHT22;14177;51.520;6.764;2024-03-02T04:31:21;8.60;99.90
26503;DHT22;14177;51.520;6.764;2024-03-02T04:33:48;8.60;99.90
26503;DHT22;14177;51.520;6.764;2024-03-02T04:36:15;8.50;99.90
26503;DHT22;14177;51.520;6.764;2024-03-02T04:38:42;8.50;99.90
26503;DHT22;14177;51.520;6.764;2024-03-02T04:41:09;8.40;99.90
26503;DHT22;14177;51.520;6.764;2024-03-02T04:43:36;8.40;99.90
26503;DHT22;14177;51.520;6.764;2024-03-02T04:46:05;8.40;99.90
26503;DHT22;14177;51.520;6.764;2024-03-02T04:48:34;8.40;99.90
26503;DHT22;14177;51.520;6.764;2024-03-02T04:51:01;8.40;99.90
26503;DHT22;14177;51.520;6.764;2024-03-02T04:53:28;8.30;99.90
26503;DHT22;14177;51.520;6.764;2024-03-02T04:55:55;8.30;99.90
26503;DHT22;14177;51.520;6.764;2024-03-02T04:58:41;8.30;99.90
26503;DHT22;14177;51.520;6.764;2024-03-02T05:01:08;8.30;99.90
26503;DHT22;14177;51.520;6.764;2024-03-02T05:03:35;8.30;99.90
26503;DHT22;14177;51.520;6.764;2024-03-02T05:06:02;8.30;99.90
26503;DHT22;14177;51.520;6.764;2024-03-02T05:08:30;8.30;99.90
26503;DHT22;14177;51.520;6.764;2024-03-02T05:10:56;8.20;99.90
26503;DHT22;14177;51.520;6.764;2024-03-02T05:13:43;8.10;99.90
26503;DHT22;14177;51.520;6.764;2024-03-02T05:16:10;8.10;99.90
26503;DHT22;14177;51.520;6.764;2024-03-02T05:18:38;8.00;99.90
26503;DHT22;14177;51.520;6.764;2024-03-02T05:21:05;8.00;99.90
26503;DHT22;14177;51.520;6.764;2024-03-02T05:23:32;7.90;99.90
26503;DHT22;14177;51.520;6.764;2024-03-02T05:25:59;7.80;99.90
26503;DHT22;14177;51.520;6.764;2024-03-02T05:28:26;7.80;99.90
26503;DHT22;14177;51.520;6.764;2024-03-02T05:30:53;7.70;99.90
26503;DHT22;14177;51.520;6.764;2024-03-02T05:33:20;7.60;99.90
26503;DHT22;14177;51.520;6.764;2024-03-02T05:35:49;7.60;99.90
26503;DHT22;14177;51.520;6.764;2024-03-02T05:38:19;7.50;99.90
26503;DHT22;14177;51.520;6.764;2024-03-02T05:40:45;7.50;99.90
26503;DHT22;14177;51.520;6.764;2024-03-02T05:43:12;7.50;99.90
26503;DHT22;14177;51.520;6.764;2024-03-02T05:45:39;7.50;99.90
26503;DHT22;14177;51.520;6.764;2024-03-02T05:48:07;7.50;99.90
26503;DHT22;14177;51.520;6.764;2024-03-02T05:50:35;7.40;99.90
26503;DHT22;14177;51.520;6.764;2024-03-02T05:53:02;7.40;99.90
26503;DHT22;14177;51.520;6.764;2024-03-02T05:55:29;7.40;99.90
26503;DHT22;14177;51.520;6.764;2024-03-02T05:57:56;7.40;99.90
26503;DHT22;14177;51.520;6.764;2024-03-02T06:00:29;7.40;99.90
26503;DHT22;14177;51.520;6.764;2024-03-02T06:02:58;7.40;99.90
26503;DHT22;14177;51.520;6.764;2024-03-02T06:05:25;7.40;99.90
26503;DHT22;14177;51.520;6.764;2024-03-02T06:07:52;7.50;99.90
26503;DHT22;14177;51.520;6.764;2024-03-02T06:10:19;7.50;99.90
26503;DHT22;14177;51.520;6.764;2024-03-02T06:12:47;7.50;99.90
26503;DHT22;14177;51.520;6.764;2024-03-02T06:15:14;7.50;99.90
26503;DHT22;14177;51.520;6.764;2024-03-02T06:17:41;7.50;99.90
26503;DHT22;14177;51.520;6.764;2024-03-02T06:20:08;7.50;99.90
26503;DHT22;14177;51.520;6.764;2024-03-02T06:22:36;7.50;99.90
26503;DHT22;14177;51.520;6.764;2024-03-02T06:25:04;7.60;99.90
26503;DHT22;14177;51.520;6.764;2024-03-02T06:27:31;7.50;99.90
26503;DHT22;14177;51.520;6.764;2024-03-02T06:29:58;7.60;99.90
26503;DHT22;14177;51.520;6.764;2024-03-02T06:32:25;7.60;99.90
26503;DHT22;14177;51.520;6.764;2024-03-02T06:34:52;7.60;99.90
26503;DHT22;14177;51.520;6.764;2024-03-02T06:37:19;7.60;99.90
26503;DHT22;14177;51.520;6.764;2024-03-02T06:39:46;7.60;99.90
26503;DHT22;14177;51.520;6.764;2024-03-02T06:42:12;7.60;99.90
26503;DHT22;14177;51.520;6.764;2024-03-02T06:44:39;7.60;99.90
26503;DHT22;14177;51.520;6.764;2024-03-02T06:47:06;7.70;99.90
26503;DHT22;14177;51.520;6.764;2024-03-02T06:49:33;7.70;99.90
26503;DHT22;14177;51.520;6.764;2024-03-02T06:52:02;7.70;99.90
26503;DHT22;14177;51.520;6.764;2024-03-02T06:54:29;7.70;99.90
26503;DHT22;14177;51.520;6.764;2024-03-02T06:56:56;7.70;99.90
26503;DHT22;14177;51.520;6.764;2024-03-02T06:59:23;7.70;99.90
26503;DHT22;14177;51.520;6.764;2024-03-02T07:01:51;7.80;99.90
26503;DHT22;14177;51.520;6.764;2024-03-02T07:04:18;7.80;99.90
26503;DHT22;14177;51.520;6.764;2024-03-02T07:06:45;7.90;99.90
26503;DHT22;14177;51.520;6.764;2024-03-02T07:09:12;8.00;99.90
26503;DHT22;14177;51.520;6.764;2024-03-02T07:11:39;8.20;99.90
26503;DHT22;14177;51.520;6.764;2024-03-02T07:14:06;8.40;99.90
26503;DHT22;14177;51.520;6.764;2024-03-02T07:16:33;8.60;99.90
26503;DHT22;14177;51.520;6.764;2024-03-02T07:19:01;8.80;99.90
26503;DHT22;14177;51.520;6.764;2024-03-02T07:21:28;8.90;99.90
26503;DHT22;14177;51.520;6.764;2024-03-02T07:23:55;8.90;37.30
26503;DHT22;14177;51.520;6.764;2024-03-02T07:26:23;8.90;39.00
26503;DHT22;14177;51.520;6.764;2024-03-02T07:28:52;8.90;38.00
26503;DHT22;14177;51.520;6.764;2024-03-02T07:31:20;8.90;38.30
26503;DHT22;14177;51.520;6.764;2024-03-02T07:33:46;9.10;38.70
26503;DHT22;14177;51.520;6.764;2024-03-02T07:36:14;9.40;37.80
26503;DHT22;14177;51.520;6.764;2024-03-02T07:38:43;9.50;46.30
26503;DHT22;14177;51.520;6.764;2024-03-02T07:41:11;9.70;50.80
26503;DHT22;14177;51.520;6.764;2024-03-02T07:43:38;9.70;99.90
26503;DHT22;14177;51.520;6.764;2024-03-02T07:46:06;9.80;99.90
26503;DHT22;14177;51.520;6.764;2024-03-02T07:48:33;9.80;99.90
26503;DHT22;14177;51.520;6.764;2024-03-02T07:51:01;9.90;99.90
26503;DHT22;14177;51.520;6.764;2024-03-02T07:53:29;9.90;47.40
26503;DHT22;14177;51.520;6.764;2024-03-02T07:55:56;10.20;45.90
26503;DHT22;14177;51.520;6.764;2024-03-02T07:58:29;10.10;60.60
26503;DHT22;14177;51.520;6.764;2024-03-02T08:00:57;10.10;72.50
26503;DHT22;14177;51.520;6.764;2024-03-02T08:03:24;10.00;63.30
26503;DHT22;14177;51.520;6.764;2024-03-02T08:05:52;10.10;59.30
26503;DHT22;14177;51.520;6.764;2024-03-02T08:08:19;9.90;59.10
26503;DHT22;14177;51.520;6.764;2024-03-02T08:10:46;9.80;58.90
26503;DHT22;14177;51.520;6.764;2024-03-02T08:13:13;9.70;59.70
26503;DHT22;14177;51.520;6.764;2024-03-02T08:15:40;9.70;62.00
26503;DHT22;14177;51.520;6.764;2024-03-02T08:18:08;9.70;52.40
26503;DHT22;14177;51.520;6.764;2024-03-02T08:20:35;9.80;46.00
26503;DHT22;14177;51.520;6.764;2024-03-02T08:23:02;10.10;24.30
26503;DHT22;14177;51.520;6.764;2024-03-02T08:25:29;10.20;19.90
26503;DHT22;14177;51.520;6.764;2024-03-02T08:27:56;10.20;20.10
26503;DHT22;14177;51.520;6.764;2024-03-02T08:30:24;10.20;18.40
26503;DHT22;14177;51.520;6.764;2024-03-02T08:32:51;10.00;19.10
26503;DHT22;14177;51.520;6.764;2024-03-02T08:35:18;10.00;20.30
26503;DHT22;14177;51.520;6.764;2024-03-02T08:37:45;9.90;21.90
26503;DHT22;14177;51.520;6.764;2024-03-02T08:40:12;9.80;22.50
26503;DHT22;14177;51.520;6.764;2024-03-02T08:42:44;10.10;26.00
26503;DHT22;14177;51.520;6.764;2024-03-02T08:45:12;10.50;20.00
26503;DHT22;14177;51.520;6.764;2024-03-02T08:47:40;10.90;17.50
26503;DHT22;14177;51.520;6.764;2024-03-02T08:50:07;11.30;10.30
26503;DHT22;14177;51.520;6.764;2024-03-02T08:52:35;11.60;9.40
26503;DHT22;14177;51.520;6.764;2024-03-02T08:55:02;11.70;8.20
26503;DHT22;14177;51.520;6.764;2024-03-02T08:57:30;11.80;8.40
26503;DHT22;14177;51.520;6.764;2024-03-02T08:59:58;12.10;7.20
26503;DHT22;14177;51.520;6.764;2024-03-02T09:02:26;12.00;7.60
26503;DHT22;14177;51.520;6.764;2024-03-02T09:04:53;12.20;2.70
26503;DHT22;14177;51.520;6.764;2024-03-02T09:07:20;12.20;1.00
26503;DHT22;14177;51.520;6.764;2024-03-02T09:09:47;12.20;3.00
26503;DHT22;14177;51.520;6.764;2024-03-02T09:12:15;12.40;1.80
26503;DHT22;14177;51.520;6.764;2024-03-02T09:14:42;12.60;1.00
26503;DHT22;14177;51.520;6.764;2024-03-02T09:17:09;12.70;4.60
26503;DHT22;14177;51.520;6.764;2024-03-02T09:19:40;12.60;1.00
26503;DHT22;14177;51.520;6.764;2024-03-02T09:22:06;12.40;2.10
26503;DHT22;14177;51.520;6.764;2024-03-02T09:24:34;12.90;1.00
26503;DHT22;14177;51.520;6.764;2024-03-02T09:27:01;13.00;1.00
26503;DHT22;14177;51.520;6.764;2024-03-02T09:29:28;13.30;1.00
26503;DHT22;14177;51.520;6.764;2024-03-02T09:31:56;13.60;4.20
26503;DHT22;14177;51.520;6.764;2024-03-02T09:34:23;13.70;20.50
26503;DHT22;14177;51.520;6.764;2024-03-02T09:36:51;13.60;82.10
26503;DHT22;14177;51.520;6.764;2024-03-02T09:39:18;13.80;95.90
26503;DHT22;14177;51.520;6.764;2024-03-02T09:41:48;13.90;99.90
26503;DHT22;14177;51.520;6.764;2024-03-02T09:44:15;13.80;99.90
26503;DHT22;14177;51.520;6.764;2024-03-02T09:46:42;13.80;99.90
26503;DHT22;14177;51.520;6.764;2024-03-02T09:49:11;13.80;99.90
26503;DHT22;14177;51.520;6.764;2024-03-02T09:51:38;14.10;99.90
26503;DHT22;14177;51.520;6.764;2024-03-02T09:54:10;14.00;99.90
26503;DHT22;14177;51.520;6.764;2024-03-02T09:56:47;14.10;99.90
26503;DHT22;14177;51.520;6.764;2024-03-02T09:59:14;14.60;99.90
26503;DHT22;14177;51.520;6.764;2024-03-02T10:04:29;14.20;99.90
26503;DHT22;14177;51.520;6.764;2024-03-02T10:07:18;14.50;99.90
26503;DHT22;14177;51.520;6.764;2024-03-02T10:09:47;14.60;99.90
26503;DHT22;14177;51.520;6.764;2024-03-02T10:12:17;14.90;99.90
26503;DHT22;14177;51.520;6.764;2024-03-02T10:14:45;14.90;99.90
26503;DHT22;14177;51.520;6.764;2024-03-02T10:17:17;14.80;99.90
26503;DHT22;14177;51.520;6.764;2024-03-02T10:19:44;14.40;99.90
26503;DHT22;14177;51.520;6.764;2024-03-02T10:22:11;14.60;99.90
26503;DHT22;14177;51.520;6.764;2024-03-02T10:24:40;15.00;99.90
26503;DHT22;14177;51.520;6.764;2024-03-02T10:27:22;14.90;99.90
26503;DHT22;14177;51.520;6.764;2024-03-02T10:29:53;15.00;99.80
26503;DHT22;14177;51.520;6.764;2024-03-02T10:32:22;14.90;99.90
26503;DHT22;14177;51.520;6.764;2024-03-02T10:34:50;14.90;99.90
26503;DHT22;14177;51.520;6.764;2024-03-02T10:37:17;14.30;99.90
26503;DHT22;14177;51.520;6.764;2024-03-02T10:39:46;14.50;99.90
26503;DHT22;14177;51.520;6.764;2024-03-02T10:42:14;15.00;99.90
26503;DHT22;14177;51.520;6.764;2024-03-02T10:44:42;15.20;99.90
26503;DHT22;14177;51.520;6.764;2024-03-02T10:47:12;15.40;99.90
26503;DHT22;14177;51.520;6.764;2024-03-02T10:49:42;15.30;98.80
26503;DHT22;14177;51.520;6.764;2024-03-02T10:52:10;15.30;98.50
26503;DHT22;14177;51.520;6.764;2024-03-02T10:54:37;15.60;98.80
26503;DHT22;14177;51.520;6.764;2024-03-02T10:57:07;15.70;98.10
26503;DHT22;14177;51.520;6.764;2024-03-02T10:59:47;15.60;98.80
26503;DHT22;14177;51.520;6.764;2024-03-02T11:02:21;15.40;98.40
26503;DHT22;14177;51.520;6.764;2024-03-02T11:04:50;15.50;98.60
26503;DHT22;14177;51.520;6.764;2024-03-02T11:07:23;15.90;98.30
26503;DHT22;14177;51.520;6.764;2024-03-02T11:09:59;15.90;97.70
26503;DHT22;14177;51.520;6.764;2024-03-02T11:12:39;16.00;97.30
26503;DHT22;14177;51.520;6.764;2024-03-02T11:15:18;15.80;96.80
26503;DHT22;14177;51.520;6.764;2024-03-02T11:17:48;16.30;96.50
26503;DHT22;14177;51.520;6.764;2024-03-02T11:20:16;16.20;96.00
26503;DHT22;14177;51.520;6.764;2024-03-02T11:22:44;16.40;96.50
26503;DHT22;14177;51.520;6.764;2024-03-02T11:25:27;16.10;96.30
26503;DHT22;14177;51.520;6.764;2024-03-02T11:33:06;17.00;95.30
26503;DHT22;14177;51.520;6.764;2024-03-02T11:35:41;16.60;95.60
26503;DHT22;14177;51.520;6.764;2024-03-02T11:38:10;16.80;95.40
26503;DHT22;14177;51.520;6.764;2024-03-02T11:40:39;16.80;94.20
26503;DHT22;14177;51.520;6.764;2024-03-02T11:43:07;17.20;94.80
26503;DHT22;14177;51.520;6.764;2024-03-02T11:45:36;17.50;93.90
26503;DHT22;14177;51.520;6.764;2024-03-02T11:48:08;17.40;93.40
26503;DHT22;14177;51.520;6.764;2024-03-02T11:50:47;17.60;93.50
26503;DHT22;14177;51.520;6.764;2024-03-02T11:53:17;17.20;92.80
26503;DHT22;14177;51.520;6.764;2024-03-02T11:55:45;17.20;93.40
26503;DHT22;14177;51.520;6.764;2024-03-02T11:58:15;16.40;93.10
26503;DHT22;14177;51.520;6.764;2024-03-02T12:00:47;16.60;93.60
26503;DHT22;14177;51.520;6.764;2024-03-02T12:03:17;16.90;93.30
26503;DHT22;14177;51.520;6.764;2024-03-02T12:05:49;17.00;93.40
26503;DHT22;14177;51.520;6.764;2024-03-02T12:08:17;16.30;94.10
26503;DHT22;14177;51.520;6.764;2024-03-02T12:10:56;16.30;93.80
26503;DHT22;14177;51.520;6.764;2024-03-02T12:13:24;16.80;93.90
26503;DHT22;14177;51.520;6.764;2024-03-02T12:15:54;17.40;93.20
26503;DHT22;14177;51.520;6.764;2024-03-02T12:18:25;17.60;92.00
26503;DHT22;14177;51.520;6.764;2024-03-02T12:20:53;17.60;91.50
26503;DHT22;14177;51.520;6.764;2024-03-02T12:23:23;17.50;91.20
26503;DHT22;14177;51.520;6.764;2024-03-02T12:25:51;17.40;91.50
26503;DHT22;14177;51.520;6.764;2024-03-02T12:28:19;17.20;91.40
26503;DHT22;14177;51.520;6.764;2024-03-02T12:30:46;17.10;91.50
26503;DHT22;14177;51.520;6.764;2024-03-02T12:33:14;17.00;90.60
26503;DHT22;14177;51.520;6.764;2024-03-02T12:35:41;16.90;90.70
26503;DHT22;14177;51.520;6.764;2024-03-02T12:38:09;16.90;90.80
26503;DHT22;14177;51.520;6.764;2024-03-02T12:40:37;16.70;90.60
26503;DHT22;14177;51.520;6.764;2024-03-02T12:43:05;16.50;91.50
26503;DHT22;14177;51.520;6.764;2024-03-02T12:45:34;16.50;91.40
26503;DHT22;14177;51.520;6.764;2024-03-02T12:48:02;16.50;91.90
26503;DHT22;14177;51.520;6.764;2024-03-02T12:50:32;16.60;92.00
26503;DHT22;14177;51.520;6.764;2024-03-02T12:53:04;16.50;91.30
26503;DHT22;14177;51.520;6.764;2024-03-02T12:55:31;16.20;91.70
26503;DHT22;14177;51.520;6.764;2024-03-02T12:58:07;16.30;91.80
26503;DHT22;14177;51.520;6.764;2024-03-02T13:04:41;16.10;92.60
26503;DHT22;14177;51.520;6.764;2024-03-02T13:07:17;16.20;92.40
26503;DHT22;14177;51.520;6.764;2024-03-02T13:10:00;15.90;92.30
26503;DHT22;14177;51.520;6.764;2024-03-02T13:12:30;15.90;92.40
26503;DHT22;14177;51.520;6.764;2024-03-02T13:15:03;15.80;92.90
26503;DHT22;14177;51.520;6.764;2024-03-02T13:18:12;15.60;93.00
26503;DHT22;14177;51.520;6.764;2024-03-02T13:21:25;15.70;93.60
26503;DHT22;14177;51.520;6.764;2024-03-02T13:24:23;15.60;93.10
26503;DHT22;14177;51.520;6.764;2024-03-02T13:27:10;15.70;93.80
26503;DHT22;14177;51.520;6.764;2024-03-02T13:29:45;15.50;93.70
26503;DHT22;14177;51.520;6.764;2024-03-02T13:32:45;15.60;93.80
26503;DHT22;14177;51.520;6.764;2024-03-02T13:35:15;15.70;94.00
26503;DHT22;14177;51.520;6.764;2024-03-02T13:37:44;15.70;93.60
26503;DHT22;14177;51.520;6.764;2024-03-02T13:40:16;15.60;93.80
26503;DHT22;14177;51.520;6.764;2024-03-02T13:42:48;15.70;94.20
26503;DHT22;14177;51.520;6.764;2024-03-02T13:45:48;15.70;94.30
26503;DHT22;14177;51.520;6.764;2024-03-02T13:49:14;15.60;93.70
26503;DHT22;14177;51.520;6.764;2024-03-02T13:52:32;15.30;94.10
26503;DHT22;14177;51.520;6.764;2024-03-02T13:56:18;15.20;94.30
26503;DHT22;14177;51.520;6.764;2024-03-02T13:59:11;15.20;94.70
26503;DHT22;14177;51.520;6.764;2024-03-02T14:01:47;15.30;94.50
26503;DHT22;14177;51.520;6.764;2024-03-02T14:04:28;15.00;93.90
26503;DHT22;14177;51.520;6.764;2024-03-02T14:07:06;15.00;94.70
26503;DHT22;14177;51.520;6.764;2024-03-02T14:09:46;15.10;94.80
26503;DHT22;14177;51.520;6.764;2024-03-02T14:12:16;15.00;95.00
26503;DHT22;14177;51.520;6.764;2024-03-02T14:14:48;15.20;95.20
26503;DHT22;14177;51.520;6.764;2024-03-02T14:17:20;15.20;95.00
26503;DHT22;14177;51.520;6.764;2024-03-02T14:20:01;15.20;94.90
26503;DHT22;14177;51.520;6.764;2024-03-02T14:23:04;15.20;94.90
26503;DHT22;14177;51.520;6.764;2024-03-02T14:25:37;15.20;95.40
26503;DHT22;14177;51.520;6.764;2024-03-02T14:28:25;15.20;95.00
26503;DHT22;14177;51.520;6.764;2024-03-02T14:31:18;15.00;95.00
26503;DHT22;14177;51.520;6.764;2024-03-02T14:33:48;14.90;95.20
26503;DHT22;14177;51.520;6.764;2024-03-02T14:36:17;14.90;95.40
26503;DHT22;14177;51.520;6.764;2024-03-02T14:38:55;14.90;95.50
26503;DHT22;14177;51.520;6.764;2024-03-02T14:41:55;15.10;95.40
26503;DHT22;14177;51.520;6.764;2024-03-02T14:44:27;15.20;95.30
26503;DHT22;14177;51.520;6.764;2024-03-02T14:47:04;15.40;95.20
26503;DHT22;14177;51.520;6.764;2024-03-02T14:50:21;15.60;95.10
26503;DHT22;14177;51.520;6.764;2024-03-02T14:54:17;15.90;94.50
26503;DHT22;14177;51.520;6.764;2024-03-02T14:57:20;16.20;94.50
26503;DHT22;14177;51.520;6.764;2024-03-02T14:59:50;16.30;94.50
26503;DHT22;14177;51.520;6.764;2024-03-02T15:02:26;16.20;93.60
26503;DHT22;14177;51.520;6.764;2024-03-02T15:05:07;15.90;93.70
26503;DHT22;14177;51.520;6.764;2024-03-02T15:07:39;15.80;94.00
26503;DHT22;14177;51.520;6.764;2024-03-02T15:10:08;15.80;94.60
26503;DHT22;14177;51.520;6.764;2024-03-02T15:12:37;15.70;94.20
26503;DHT22;14177;51.520;6.764;2024-03-02T15:15:06;15.60;94.20
26503;DHT22;14177;51.520;6.764;2024-03-02T15:17:36;15.60;94.90
26503;DHT22;14177;51.520;6.764;2024-03-02T15:20:05;15.70;94.40
26503;DHT22;14177;51.520;6.764;2024-03-02T15:23:12;15.80;94.20
26503;DHT22;14177;51.520;6.764;2024-03-02T15:25:48;15.90;94.50
26503;DHT22;14177;51.520;6.764;2024-03-02T15:29:18;16.00;94.20
26503;DHT22;14177;51.520;6.764;2024-03-02T15:32:53;16.00;93.80
26503;DHT22;14177;51.520;6.764;2024-03-02T15:36:23;16.10;93.90
26503;DHT22;14177;51.520;6.764;2024-03-02T15:40:15;16.00;93.40
26503;DHT22;14177;51.520;6.764;2024-03-02T15:44:06;16.00;94.10
26503;DHT22;14177;51.520;6.764;2024-03-02T15:46:34;15.80;93.70
26503;DHT22;14177;51.520;6.764;2024-03-02T15:49:02;15.70;94.00
26503;DHT22;14177;51.520;6.764;2024-03-02T15:51:29;15.60;93.90
26503;DHT22;14177;51.520;6.764;2024-03-02T15:53:56;15.50;93.90
26503;DHT22;14177;51.520;6.764;2024-03-02T15:56:23;15.40;94.20
26503;DHT22;14177;51.520;6.764;2024-03-02T15:58:50;15.30;94.00
26503;DHT22;14177;51.520;6.764;2024-03-02T16:01:17;15.20;94.10
26503;DHT22;14177;51.520;6.764;2024-03-02T16:03:46;15.10;94.30
26503;DHT22;14177;51.520;6.764;2024-03-02T16:06:16;15.00;94.40
26503;DHT22;14177;51.520;6.764;2024-03-02T16:08:43;15.00;94.60
26503;DHT22;14177;51.520;6.764;2024-03-02T16:11:10;14.90;94.60
26503;DHT22;14177;51.520;6.764;2024-03-02T16:13:37;14.90;94.70
26503;DHT22;14177;51.520;6.764;2024-03-02T16:16:04;14.80;94.70
26503;DHT22;14177;51.520;6.764;2024-03-02T16:18:32;14.80;95.00
26503;DHT22;14177;51.520;6.764;2024-03-02T16:21:00;14.70;95.30
26503;DHT22;14177;51.520;6.764;2024-03-02T16:23:30;14.70;95.10
26503;DHT22;14177;51.520;6.764;2024-03-02T16:25:57;14.70;95.50
26503;DHT22;14177;51.520;6.764;2024-03-02T16:28:24;14.70;95.60
26503;DHT22;14177;51.520;6.764;2024-03-02T16:31:00;14.60;95.40